sensor_id;sensor_type;location;lat;lon;timestamp;P1;durP1;ratioP1;P2;durP2;ratioP2
37451;SDS011;23314;51.114;6.900;2023-01-08T00:00:48;1.90;;;1.80;;
37451;SDS011;23314;51.114;6.900;2023-01-08T00:03:13;2.00;;;1.90;;
37451;SDS011;23314;51.114;6.900;2023-01-08T00:05:39;2.43;;;1.53;;
37451;SDS011;23314;51.114;6.900;2023-01-08T00:08:04;1.80;;;1.70;;
37451;SDS011;23314;51.114;6.900;2023-01-08T00:10:32;2.03;;;1.87;;
37451;SDS011;23314;51.114;6.900;2023-01-08T00:12:58;1.87;;;1.70;;
37451;SDS011;23314;51.114;6.900;2023-01-08T00:15:23;2.07;;;1.97;;
37451;SDS011;23314;51.114;6.900;2023-01-08T00:17:49;1.97;;;1.87;;
37451;SDS011;23314;51.114;6.900;2023-01-08T00:20:14;1.73;;;1.63;;
37451;SDS011;23314;51.114;6.900;2023-01-08T00:22:39;1.90;;;1.80;;
37451;SDS011;23314;51.114;6.900;2023-01-08T00:25:05;2.83;;;1.83;;
37451;SDS011;23314;51.114;6.900;2023-01-08T00:27:31;2.80;;;1.70;;
37451;SDS011;23314;51.114;6.900;2023-01-08T00:29:56;1.87;;;1.77;;
37451;SDS011;23314;51.114;6.900;2023-01-08T00:32:21;1.90;;;1.80;;
37451;SDS011;23314;51.114;6.900;2023-01-08T00:34:47;1.73;;;1.63;;
37451;SDS011;23314;51.114;6.900;2023-01-08T00:37:12;1.87;;;1.77;;
37451;SDS011;23314;51.114;6.900;2023-01-08T00:39:38;1.63;;;1.53;;
37451;SDS011;23314;51.114;6.900;2023-01-08T00:42:03;2.30;;;1.60;;
37451;SDS011;23314;51.114;6.900;2023-01-08T00:44:29;1.57;;;1.57;;
37451;SDS011;23314;51.114;6.900;2023-01-08T00:46:54;2.00;;;1.80;;
37451;SDS011;23314;51.114;6.900;2023-01-08T00:49:19;1.40;;;1.40;;
37451;SDS011;23314;51.114;6.900;2023-01-08T00:51:44;1.63;;;1.57;;
37451;SDS011;23314;51.114;6.900;2023-01-08T00:54:10;1.80;;;1.70;;
37451;SDS011;23314;51.114;6.900;2023-01-08T00:56:36;2.00;;;1.80;;
37451;SDS011;23314;51.114;6.900;2023-01-08T00:59:01;1.67;;;1.57;;
37451;SDS011;23314;51.114;6.900;2023-01-08T01:01:26;2.13;;;1.67;;
37451;SDS011;23314;51.114;6.900;2023-01-08T01:03:51;3.13;;;2.00;;
37451;SDS011;23314;51.114;6.900;2023-01-08T01:06:17;1.90;;;1.80;;
37451;SDS011;23314;51.114;6.900;2023-01-08T01:08:42;1.97;;;1.67;;
37451;SDS011;23314;51.114;6.900;2023-01-08T01:11:09;1.60;;;1.50;;
37451;SDS011;23314;51.114;6.900;2023-01-08T01:13:40;1.60;;;1.50;;
37451;SDS011;23314;51.114;6.900;2023-01-08T01:16:07;2.17;;;1.97;;
37451;SDS011;23314;51.114;6.900;2023-01-08T01:18:32;1.63;;;1.50;;
37451;SDS011;23314;51.114;6.900;2023-01-08T01:20:58;2.10;;;1.73;;
37451;SDS011;23314;51.114;6.900;2023-01-08T01:23:23;2.10;;;1.90;;
37451;SDS011;23314;51.114;6.900;2023-01-08T01:25:48;2.00;;;1.80;;
37451;SDS011;23314;51.114;6.900;2023-01-08T01:28:14;1.80;;;1.70;;
37451;SDS011;23314;51.114;6.900;2023-01-08T01:30:40;1.80;;;1.70;;
37451;SDS011;23314;51.114;6.900;2023-01-08T01:33:05;2.17;;;1.93;;
37451;SDS011;23314;51.114;6.900;2023-01-08T01:35:30;2.13;;;1.83;;
37451;SDS011;23314;51.114;6.900;2023-01-08T01:37:56;1.60;;;1.50;;
37451;SDS011;23314;51.114;6.900;2023-01-08T01:40:21;1.70;;;1.60;;
37451;SDS011;23314;51.114;6.900;2023-01-08T01:42:46;1.80;;;1.70;;
37451;SDS011;23314;51.114;6.900;2023-01-08T01:53:09;2.43;;;1.90;;
37451;SDS011;23314;51.114;6.900;2023-01-08T01:55:40;2.20;;;1.80;;
37451;SDS011;23314;51.114;6.900;2023-01-08T01:58:15;3.00;;;1.97;;
37451;SDS011;23314;51.114;6.900;2023-01-08T02:00:52;3.00;;;2.13;;
37451;SDS011;23314;51.114;6.900;2023-01-08T02:03:23;5.30;;;2.37;;
37451;SDS011;23314;51.114;6.900;2023-01-08T02:05:58;2.83;;;1.93;;
37451;SDS011;23314;51.114;6.900;2023-01-08T02:17:40;2.80;;;2.60;;
37451;SDS011;23314;51.114;6.900;2023-01-08T02:26:11;2.27;;;2.07;;
37451;SDS011;23314;51.114;6.900;2023-01-08T02:29:07;3.27;;;2.07;;
37451;SDS011;23314;51.114;6.900;2023-01-08T02:31:34;2.30;;;2.10;;
37451;SDS011;23314;51.114;6.900;2023-01-08T02:34:02;2.80;;;2.50;;
37451;SDS011;23314;51.114;6.900;2023-01-08T02:36:39;4.57;;;2.17;;
37451;SDS011;23314;51.114;6.900;2023-01-08T02:39:08;2.30;;;2.20;;
37451;SDS011;23314;51.114;6.900;2023-01-08T02:44:15;4.60;;;2.50;;
37451;SDS011;23314;51.114;6.900;2023-01-08T02:46:45;3.17;;;2.37;;
37451;SDS011;23314;51.114;6.900;2023-01-08T02:49:15;2.40;;;2.20;;
37451;SDS011;23314;51.114;6.900;2023-01-08T02:51:46;3.07;;;2.60;;
37451;SDS011;23314;51.114;6.900;2023-01-08T02:54:16;3.97;;;2.70;;
37451;SDS011;23314;51.114;6.900;2023-01-08T02:56:46;2.80;;;2.60;;
37451;SDS011;23314;51.114;6.900;2023-01-08T02:59:16;3.30;;;3.00;;
37451;SDS011;23314;51.114;6.900;2023-01-08T03:01:43;6.13;;;2.93;;
37451;SDS011;23314;51.114;6.900;2023-01-08T03:04:14;6.67;;;3.30;;
37451;SDS011;23314;51.114;6.900;2023-01-08T03:06:42;4.27;;;3.20;;
37451;SDS011;23314;51.114;6.900;2023-01-08T03:09:09;6.33;;;2.87;;
37451;SDS011;23314;51.114;6.900;2023-01-08T03:11:36;4.57;;;2.80;;
37451;SDS011;23314;51.114;6.900;2023-01-08T03:14:17;4.70;;;3.33;;
37451;SDS011;23314;51.114;6.900;2023-01-08T03:16:47;3.20;;;2.90;;
37451;SDS011;23314;51.114;6.900;2023-01-08T03:19:19;4.40;;;3.10;;
37451;SDS011;23314;51.114;6.900;2023-01-08T03:21:48;4.63;;;3.10;;
37451;SDS011;23314;51.114;6.900;2023-01-08T03:24:16;5.03;;;3.23;;
37451;SDS011;23314;51.114;6.900;2023-01-08T03:26:46;4.37;;;2.93;;
37451;SDS011;23314;51.114;6.900;2023-01-08T03:29:14;3.80;;;3.20;;
37451;SDS011;23314;51.114;6.900;2023-01-08T03:31:42;4.23;;;2.93;;
37451;SDS011;23314;51.114;6.900;2023-01-08T03:34:09;3.53;;;3.27;;
37451;SDS011;23314;51.114;6.900;2023-01-08T03:36:37;4.47;;;3.10;;
37451;SDS011;23314;51.114;6.900;2023-01-08T03:39:11;3.03;;;2.73;;
37451;SDS011;23314;51.114;6.900;2023-01-08T03:41:40;2.83;;;2.50;;
37451;SDS011;23314;51.114;6.900;2023-01-08T03:44:06;2.87;;;2.60;;
37451;SDS011;23314;51.114;6.900;2023-01-08T03:46:33;2.90;;;2.70;;
37451;SDS011;23314;51.114;6.900;2023-01-08T03:49:01;2.73;;;2.47;;
37451;SDS011;23314;51.114;6.900;2023-01-08T03:51:38;2.90;;;2.70;;
37451;SDS011;23314;51.114;6.900;2023-01-08T03:54:04;3.00;;;2.30;;
37451;SDS011;23314;51.114;6.900;2023-01-08T03:56:30;2.97;;;2.77;;
37451;SDS011;23314;51.114;6.900;2023-01-08T03:58:55;3.50;;;3.00;;
37451;SDS011;23314;51.114;6.900;2023-01-08T04:01:20;2.90;;;2.57;;
37451;SDS011;23314;51.114;6.900;2023-01-08T04:03:45;2.87;;;2.67;;
37451;SDS011;23314;51.114;6.900;2023-01-08T04:06:11;3.37;;;2.77;;
37451;SDS011;23314;51.114;6.900;2023-01-08T04:08:36;2.70;;;2.53;;
37451;SDS011;23314;51.114;6.900;2023-01-08T04:11:01;4.43;;;2.80;;
37451;SDS011;23314;51.114;6.900;2023-01-08T04:13:27;2.97;;;2.77;;
37451;SDS011;23314;51.114;6.900;2023-01-08T04:15:52;3.37;;;3.07;;
37451;SDS011;23314;51.114;6.900;2023-01-08T04:18:17;2.87;;;2.67;;
37451;SDS011;23314;51.114;6.900;2023-01-08T04:20:46;3.03;;;2.70;;
37451;SDS011;23314;51.114;6.900;2023-01-08T04:23:12;3.30;;;3.03;;
37451;SDS011;23314;51.114;6.900;2023-01-08T04:25:38;3.07;;;2.73;;
37451;SDS011;23314;51.114;6.900;2023-01-08T04:28:03;4.33;;;3.17;;
37451;SDS011;23314;51.114;6.900;2023-01-08T04:30:28;3.00;;;2.80;;
37451;SDS011;23314;51.114;6.900;2023-01-08T04:32:54;3.13;;;2.90;;
37451;SDS011;23314;51.114;6.900;2023-01-08T04:35:19;3.17;;;2.90;;
37451;SDS011;23314;51.114;6.900;2023-01-08T04:37:45;3.50;;;3.20;;
37451;SDS011;23314;51.114;6.900;2023-01-08T04:40:10;3.93;;;2.80;;
37451;SDS011;23314;51.114;6.900;2023-01-08T04:42:35;3.97;;;2.70;;
37451;SDS011;23314;51.114;6.900;2023-01-08T04:45:01;2.63;;;2.47;;
37451;SDS011;23314;51.114;6.900;2023-01-08T04:47:26;2.70;;;2.50;;
37451;SDS011;23314;51.114;6.900;2023-01-08T04:49:51;2.57;;;2.40;;
37451;SDS011;23314;51.114;6.900;2023-01-08T04:52:17;3.20;;;2.80;;
37451;SDS011;23314;51.114;6.900;2023-01-08T04:54:42;4.20;;;2.67;;
37451;SDS011;23314;51.114;6.900;2023-01-08T04:57:07;2.43;;;2.30;;
37451;SDS011;23314;51.114;6.900;2023-01-08T04:59:33;2.70;;;2.50;;
37451;SDS011;23314;51.114;6.900;2023-01-08T05:01:58;2.63;;;2.40;;
37451;SDS011;23314;51.114;6.900;2023-01-08T05:04:23;3.40;;;2.37;;
37451;SDS011;23314;51.114;6.900;2023-01-08T05:06:49;6.43;;;2.87;;
37451;SDS011;23314;51.114;6.900;2023-01-08T05:09:14;3.10;;;2.67;;
37451;SDS011;23314;51.114;6.900;2023-01-08T05:11:39;2.87;;;2.67;;
37451;SDS011;23314;51.114;6.900;2023-01-08T05:14:05;3.20;;;2.90;;
37451;SDS011;23314;51.114;6.900;2023-01-08T05:16:30;3.00;;;2.70;;
37451;SDS011;23314;51.114;6.900;2023-01-08T05:18:56;3.07;;;2.63;;
37451;SDS011;23314;51.114;6.900;2023-01-08T05:21:21;2.60;;;2.50;;
37451;SDS011;23314;51.114;6.900;2023-01-08T05:23:46;3.77;;;2.60;;
37451;SDS011;23314;51.114;6.900;2023-01-08T05:26:12;2.50;;;2.30;;
37451;SDS011;23314;51.114;6.900;2023-01-08T05:28:41;2.57;;;2.37;;
37451;SDS011;23314;51.114;6.900;2023-01-08T05:31:06;2.23;;;2.10;;
37451;SDS011;23314;51.114;6.900;2023-01-08T05:33:31;2.17;;;2.07;;
37451;SDS011;23314;51.114;6.900;2023-01-08T05:35:57;2.13;;;2.00;;
37451;SDS011;23314;51.114;6.900;2023-01-08T05:38:22;2.13;;;2.00;;
37451;SDS011;23314;51.114;6.900;2023-01-08T05:40:50;2.13;;;1.80;;
37451;SDS011;23314;51.114;6.900;2023-01-08T05:43:16;1.50;;;1.50;;
37451;SDS011;23314;51.114;6.900;2023-01-08T05:45:41;1.70;;;1.60;;
37451;SDS011;23314;51.114;6.900;2023-01-08T05:48:07;1.30;;;1.20;;
37451;SDS011;23314;51.114;6.900;2023-01-08T05:50:32;1.20;;;1.20;;
37451;SDS011;23314;51.114;6.900;2023-01-08T05:52:58;1.50;;;1.07;;
37451;SDS011;23314;51.114;6.900;2023-01-08T05:55:24;2.33;;;1.20;;
37451;SDS011;23314;51.114;6.900;2023-01-08T05:57:49;1.33;;;0.90;;
37451;SDS011;23314;51.114;6.900;2023-01-08T06:00:15;1.10;;;0.93;;
37451;SDS011;23314;51.114;6.900;2023-01-08T06:02:44;1.23;;;0.90;;
37451;SDS011;23314;51.114;6.900;2023-01-08T06:05:10;1.07;;;0.97;;
37451;SDS011;23314;51.114;6.900;2023-01-08T06:07:35;1.30;;;1.20;;
37451;SDS011;23314;51.114;6.900;2023-01-08T06:10:00;0.90;;;0.90;;
37451;SDS011;23314;51.114;6.900;2023-01-08T06:12:26;1.03;;;1.00;;
37451;SDS011;23314;51.114;6.900;2023-01-08T06:14:51;0.80;;;0.80;;
37451;SDS011;23314;51.114;6.900;2023-01-08T06:17:16;2.70;;;1.30;;
37451;SDS011;23314;51.114;6.900;2023-01-08T06:19:42;0.87;;;0.87;;
37451;SDS011;23314;51.114;6.900;2023-01-08T06:22:07;0.80;;;0.80;;
37451;SDS011;23314;51.114;6.900;2023-01-08T06:24:32;1.77;;;0.90;;
37451;SDS011;23314;51.114;6.900;2023-01-08T06:26:58;0.90;;;0.80;;
37451;SDS011;23314;51.114;6.900;2023-01-08T06:29:23;0.93;;;0.83;;
37451;SDS011;23314;51.114;6.900;2023-01-08T06:31:48;0.70;;;0.70;;
37451;SDS011;23314;51.114;6.900;2023-01-08T06:34:13;0.80;;;0.80;;
37451;SDS011;23314;51.114;6.900;2023-01-08T06:36:39;0.80;;;0.80;;
37451;SDS011;23314;51.114;6.900;2023-01-08T06:39:07;1.17;;;0.87;;
37451;SDS011;23314;51.114;6.900;2023-01-08T06:41:33;0.90;;;0.67;;
37451;SDS011;23314;51.114;6.900;2023-01-08T06:43:58;0.87;;;0.87;;
37451;SDS011;23314;51.114;6.900;2023-01-08T06:46:24;2.53;;;1.00;;
37451;SDS011;23314;51.114;6.900;2023-01-08T06:48:49;1.10;;;1.10;;
37451;SDS011;23314;51.114;6.900;2023-01-08T06:51:14;1.20;;;1.10;;
37451;SDS011;23314;51.114;6.900;2023-01-08T06:53:39;1.03;;;1.03;;
37451;SDS011;23314;51.114;6.900;2023-01-08T06:56:05;1.27;;;0.80;;
37451;SDS011;23314;51.114;6.900;2023-01-08T06:58:33;1.63;;;1.07;;
37451;SDS011;23314;51.114;6.900;2023-01-08T07:00:58;3.13;;;0.87;;
37451;SDS011;23314;51.114;6.900;2023-01-08T07:03:24;1.13;;;0.93;;
37451;SDS011;23314;51.114;6.900;2023-01-08T07:05:50;4.90;;;0.90;;
37451;SDS011;23314;51.114;6.900;2023-01-08T07:08:15;2.63;;;0.80;;
37451;SDS011;23314;51.114;6.900;2023-01-08T07:10:41;3.60;;;1.03;;
37451;SDS011;23314;51.114;6.900;2023-01-08T07:13:07;1.90;;;0.80;;
37451;SDS011;23314;51.114;6.900;2023-01-08T07:15:36;4.00;;;1.20;;
37451;SDS011;23314;51.114;6.900;2023-01-08T07:18:05;1.97;;;0.90;;
37451;SDS011;23314;51.114;6.900;2023-01-08T07:20:32;2.17;;;0.80;;
37451;SDS011;23314;51.114;6.900;2023-01-08T07:23:01;0.80;;;0.80;;
37451;SDS011;23314;51.114;6.900;2023-01-08T07:25:27;3.60;;;0.90;;
37451;SDS011;23314;51.114;6.900;2023-01-08T07:27:53;3.47;;;1.40;;
37451;SDS011;23314;51.114;6.900;2023-01-08T07:30:18;1.07;;;0.77;;
37451;SDS011;23314;51.114;6.900;2023-01-08T07:32:43;2.10;;;1.20;;
37451;SDS011;23314;51.114;6.900;2023-01-08T07:35:08;1.90;;;0.90;;
37451;SDS011;23314;51.114;6.900;2023-01-08T07:37:37;1.50;;;0.90;;
37451;SDS011;23314;51.114;6.900;2023-01-08T07:40:04;1.67;;;1.00;;
37451;SDS011;23314;51.114;6.900;2023-01-08T07:42:29;2.03;;;1.03;;
37451;SDS011;23314;51.114;6.900;2023-01-08T07:44:55;2.77;;;1.10;;
37451;SDS011;23314;51.114;6.900;2023-01-08T07:47:20;3.23;;;1.37;;
37451;SDS011;23314;51.114;6.900;2023-01-08T07:49:45;6.00;;;1.70;;
37451;SDS011;23314;51.114;6.900;2023-01-08T07:52:11;2.37;;;1.13;;
37451;SDS011;23314;51.114;6.900;2023-01-08T07:54:36;2.03;;;1.00;;
37451;SDS011;23314;51.114;6.900;2023-01-08T07:57:01;2.83;;;1.20;;
37451;SDS011;23314;51.114;6.900;2023-01-08T07:59:27;3.37;;;1.50;;
37451;SDS011;23314;51.114;6.900;2023-01-08T08:01:52;7.33;;;1.27;;
37451;SDS011;23314;51.114;6.900;2023-01-08T08:04:17;2.17;;;1.17;;
37451;SDS011;23314;51.114;6.900;2023-01-08T08:06:43;3.70;;;1.30;;
37451;SDS011;23314;51.114;6.900;2023-01-08T08:09:08;6.87;;;1.30;;
37451;SDS011;23314;51.114;6.900;2023-01-08T08:11:33;1.43;;;0.83;;
37451;SDS011;23314;51.114;6.900;2023-01-08T08:13:59;2.60;;;1.07;;
37451;SDS011;23314;51.114;6.900;2023-01-08T08:16:24;3.93;;;1.20;;
37451;SDS011;23314;51.114;6.900;2023-01-08T08:18:49;4.90;;;1.00;;
37451;SDS011;23314;51.114;6.900;2023-01-08T08:21:15;3.27;;;1.53;;
37451;SDS011;23314;51.114;6.900;2023-01-08T08:23:40;5.57;;;1.27;;
37451;SDS011;23314;51.114;6.900;2023-01-08T08:26:05;4.60;;;1.50;;
37451;SDS011;23314;51.114;6.900;2023-01-08T08:28:31;6.53;;;1.40;;
37451;SDS011;23314;51.114;6.900;2023-01-08T08:30:57;4.83;;;1.53;;
37451;SDS011;23314;51.114;6.900;2023-01-08T08:33:22;4.10;;;1.00;;
37451;SDS011;23314;51.114;6.900;2023-01-08T08:35:49;8.33;;;1.57;;
37451;SDS011;23314;51.114;6.900;2023-01-08T08:38:15;6.07;;;1.43;;
37451;SDS011;23314;51.114;6.900;2023-01-08T08:40:41;4.13;;;1.70;;
37451;SDS011;23314;51.114;6.900;2023-01-08T08:43:07;7.47;;;1.97;;
37451;SDS011;23314;51.114;6.900;2023-01-08T08:45:33;3.67;;;1.20;;
37451;SDS011;23314;51.114;6.900;2023-01-08T08:47:59;6.90;;;2.00;;
37451;SDS011;23314;51.114;6.900;2023-01-08T08:50:25;5.17;;;1.90;;
37451;SDS011;23314;51.114;6.900;2023-01-08T08:52:50;5.33;;;1.63;;
37451;SDS011;23314;51.114;6.900;2023-01-08T08:55:16;4.13;;;1.60;;
37451;SDS011;23314;51.114;6.900;2023-01-08T08:57:43;8.03;;;2.10;;
37451;SDS011;23314;51.114;6.900;2023-01-08T09:00:10;8.27;;;1.63;;
37451;SDS011;23314;51.114;6.900;2023-01-08T09:02:36;4.43;;;1.47;;
37451;SDS011;23314;51.114;6.900;2023-01-08T09:05:01;5.40;;;1.50;;
37451;SDS011;23314;51.114;6.900;2023-01-08T09:07:27;5.13;;;1.80;;
37451;SDS011;23314;51.114;6.900;2023-01-08T09:09:52;3.77;;;1.60;;
37451;SDS011;23314;51.114;6.900;2023-01-08T09:12:17;6.03;;;1.30;;
37451;SDS011;23314;51.114;6.900;2023-01-08T09:14:43;3.57;;;1.33;;
37451;SDS011;23314;51.114;6.900;2023-01-08T09:17:08;8.03;;;1.70;;
37451;SDS011;23314;51.114;6.900;2023-01-08T09:19:34;4.57;;;1.60;;
37451;SDS011;23314;51.114;6.900;2023-01-08T09:22:00;8.63;;;1.57;;
37451;SDS011;23314;51.114;6.900;2023-01-08T09:24:26;8.53;;;1.77;;
37451;SDS011;23314;51.114;6.900;2023-01-08T09:26:52;4.87;;;1.73;;
37451;SDS011;23314;51.114;6.900;2023-01-08T09:29:18;6.43;;;1.50;;
37451;SDS011;23314;51.114;6.900;2023-01-08T09:31:43;6.30;;;1.93;;
37451;SDS011;23314;51.114;6.900;2023-01-08T09:34:10;8.90;;;2.00;;
37451;SDS011;23314;51.114;6.900;2023-01-08T09:36:36;6.23;;;1.50;;
37451;SDS011;23314;51.114;6.900;2023-01-08T09:39:01;8.53;;;1.80;;
37451;SDS011;23314;51.114;6.900;2023-01-08T09:41:30;4.87;;;2.13;;
37451;SDS011;23314;51.114;6.900;2023-01-08T09:43:58;6.63;;;1.63;;
37451;SDS011;23314;51.114;6.900;2023-01-08T09:46:27;4.23;;;1.50;;
37451;SDS011;23314;51.114;6.900;2023-01-08T09:49:15;5.50;;;1.57;;
37451;SDS011;23314;51.114;6.900;2023-01-08T09:51:41;3.40;;;1.57;;
37451;SDS011;23314;51.114;6.900;2023-01-08T09:54:08;4.87;;;1.70;;
37451;SDS011;23314;51.114;6.900;2023-01-08T09:56:38;6.83;;;1.70;;
37451;SDS011;23314;51.114;6.900;2023-01-08T09:59:04;2.50;;;1.27;;
37451;SDS011;23314;51.114;6.900;2023-01-08T10:01:32;2.87;;;1.47;;
37451;SDS011;23314;51.114;6.900;2023-01-08T10:04:04;5.53;;;1.67;;
37451;SDS011;23314;51.114;6.900;2023-01-08T10:09:22;2.60;;;1.10;;
37451;SDS011;23314;51.114;6.900;2023-01-08T10:11:50;3.17;;;1.50;;
37451;SDS011;23314;51.114;6.900;2023-01-08T10:14:22;5.07;;;1.57;;
37451;SDS011;23314;51.114;6.900;2023-01-08T10:16:55;3.83;;;1.57;;
37451;SDS011;23314;51.114;6.900;2023-01-08T10:19:22;4.00;;;1.40;;
37451;SDS011;23314;51.114;6.900;2023-01-08T10:21:48;2.57;;;1.20;;
37451;SDS011;23314;51.114;6.900;2023-01-08T10:24:15;4.00;;;1.27;;
37451;SDS011;23314;51.114;6.900;2023-01-08T10:26:41;3.87;;;1.50;;
37451;SDS011;23314;51.114;6.900;2023-01-08T10:29:13;0.90;;;0.90;;
37451;SDS011;23314;51.114;6.900;2023-01-08T10:31:44;1.10;;;1.00;;
37451;SDS011;23314;51.114;6.900;2023-01-08T10:34:25;2.07;;;1.47;;
37451;SDS011;23314;51.114;6.900;2023-01-08T10:36:55;2.27;;;1.20;;
37451;SDS011;23314;51.114;6.900;2023-01-08T10:39:27;4.57;;;1.43;;
37451;SDS011;23314;51.114;6.900;2023-01-08T10:41:55;1.93;;;1.10;;
37451;SDS011;23314;51.114;6.900;2023-01-08T10:44:26;1.87;;;1.17;;
37451;SDS011;23314;51.114;6.900;2023-01-08T10:46:52;4.93;;;1.40;;
37451;SDS011;23314;51.114;6.900;2023-01-08T10:49:29;5.47;;;1.30;;
37451;SDS011;23314;51.114;6.900;2023-01-08T10:51:57;4.00;;;1.83;;
37451;SDS011;23314;51.114;6.900;2023-01-08T10:54:36;1.60;;;1.27;;
37451;SDS011;23314;51.114;6.900;2023-01-08T10:59:51;3.63;;;1.40;;
37451;SDS011;23314;51.114;6.900;2023-01-08T11:02:28;2.27;;;1.23;;
37451;SDS011;23314;51.114;6.900;2023-01-08T11:04:58;2.30;;;1.30;;
37451;SDS011;23314;51.114;6.900;2023-01-08T11:07:24;1.87;;;1.30;;
37451;SDS011;23314;51.114;6.900;2023-01-08T11:09:50;5.27;;;1.67;;
37451;SDS011;23314;51.114;6.900;2023-01-08T11:15:05;3.10;;;1.30;;
37451;SDS011;23314;51.114;6.900;2023-01-08T11:17:47;3.43;;;1.17;;
37451;SDS011;23314;51.114;6.900;2023-01-08T11:20:20;1.47;;;1.27;;
37451;SDS011;23314;51.114;6.900;2023-01-08T11:23:02;2.90;;;1.10;;
37451;SDS011;23314;51.114;6.900;2023-01-08T11:25:43;2.00;;;1.20;;
37451;SDS011;23314;51.114;6.900;2023-01-08T11:28:20;2.10;;;1.10;;
37451;SDS011;23314;51.114;6.900;2023-01-08T11:30:54;2.73;;;1.10;;
37451;SDS011;23314;51.114;6.900;2023-01-08T11:33:27;4.63;;;1.70;;
37451;SDS011;23314;51.114;6.900;2023-01-08T11:35:59;1.73;;;1.23;;
37451;SDS011;23314;51.114;6.900;2023-01-08T11:38:29;2.23;;;1.53;;
37451;SDS011;23314;51.114;6.900;2023-01-08T11:41:08;2.80;;;1.10;;
37451;SDS011;23314;51.114;6.900;2023-01-08T11:43:52;2.23;;;1.10;;
37451;SDS011;23314;51.114;6.900;2023-01-08T11:52:16;1.33;;;1.20;;
37451;SDS011;23314;51.114;6.900;2023-01-08T12:01:09;2.57;;;1.27;;
37451;SDS011;23314;51.114;6.900;2023-01-08T12:09:09;1.33;;;1.23;;
37451;SDS011;23314;51.114;6.900;2023-01-08T12:11:50;3.57;;;1.30;;
37451;SDS011;23314;51.114;6.900;2023-01-08T12:20:36;1.33;;;0.80;;
37451;SDS011;23314;51.114;6.900;2023-01-08T12:36:44;1.37;;;0.80;;
37451;SDS011;23314;51.114;6.900;2023-01-08T12:41:53;1.17;;;1.00;;
37451;SDS011;23314;51.114;6.900;2023-01-08T12:44:32;0.97;;;0.80;;
37451;SDS011;23314;51.114;6.900;2023-01-08T12:46:59;0.87;;;0.80;;
37451;SDS011;23314;51.114;6.900;2023-01-08T12:49:34;6.20;;;1.33;;
37451;SDS011;23314;51.114;6.900;2023-01-08T12:52:11;0.87;;;0.70;;
37451;SDS011;23314;51.114;6.900;2023-01-08T12:54:47;1.23;;;0.70;;
37451;SDS011;23314;51.114;6.900;2023-01-08T12:57:24;1.93;;;1.10;;
37451;SDS011;23314;51.114;6.900;2023-01-08T13:02:57;0.50;;;0.50;;
37451;SDS011;23314;51.114;6.900;2023-01-08T13:05:32;2.30;;;0.70;;
37451;SDS011;23314;51.114;6.900;2023-01-08T13:08:01;0.87;;;0.80;;
37451;SDS011;23314;51.114;6.900;2023-01-08T13:10:36;1.10;;;0.80;;
37451;SDS011;23314;51.114;6.900;2023-01-08T13:13:04;1.10;;;0.90;;
37451;SDS011;23314;51.114;6.900;2023-01-08T13:15:31;1.60;;;0.90;;
37451;SDS011;23314;51.114;6.900;2023-01-08T13:18:05;1.50;;;1.00;;
37451;SDS011;23314;51.114;6.900;2023-01-08T13:20:39;1.20;;;1.10;;
37451;SDS011;23314;51.114;6.900;2023-01-08T13:23:04;0.80;;;0.80;;
37451;SDS011;23314;51.114;6.900;2023-01-08T13:25:33;0.97;;;0.63;;
37451;SDS011;23314;51.114;6.900;2023-01-08T13:28:01;0.97;;;0.77;;
37451;SDS011;23314;51.114;6.900;2023-01-08T13:30:42;0.70;;;0.70;;
37451;SDS011;23314;51.114;6.900;2023-01-08T13:33:43;1.53;;;1.00;;
37451;SDS011;23314;51.114;6.900;2023-01-08T13:36:20;1.80;;;0.87;;
37451;SDS011;23314;51.114;6.900;2023-01-08T13:41:37;1.10;;;0.73;;
37451;SDS011;23314;51.114;6.900;2023-01-08T13:47:01;1.07;;;0.67;;
37451;SDS011;23314;51.114;6.900;2023-01-08T13:49:33;1.63;;;0.93;;
37451;SDS011;23314;51.114;6.900;2023-01-08T13:52:54;0.97;;;0.97;;
37451;SDS011;23314;51.114;6.900;2023-01-08T13:55:33;1.60;;;0.70;;
37451;SDS011;23314;51.114;6.900;2023-01-08T13:58:06;3.50;;;1.53;;
37451;SDS011;23314;51.114;6.900;2023-01-08T14:03:28;1.63;;;0.70;;
37451;SDS011;23314;51.114;6.900;2023-01-08T14:08:47;1.27;;;1.00;;
37451;SDS011;23314;51.114;6.900;2023-01-08T14:11:16;0.70;;;0.70;;
37451;SDS011;23314;51.114;6.900;2023-01-08T14:13:43;1.13;;;1.10;;
37451;SDS011;23314;51.114;6.900;2023-01-08T14:16:10;1.60;;;1.00;;
37451;SDS011;23314;51.114;6.900;2023-01-08T14:18:39;2.43;;;0.73;;
37451;SDS011;23314;51.114;6.900;2023-01-08T14:21:05;1.23;;;0.93;;
37451;SDS011;23314;51.114;6.900;2023-01-08T14:23:31;0.87;;;0.70;;
37451;SDS011;23314;51.114;6.900;2023-01-08T14:26:02;0.60;;;0.60;;
37451;SDS011;23314;51.114;6.900;2023-01-08T14:28:30;0.67;;;0.67;;
37451;SDS011;23314;51.114;6.900;2023-01-08T14:30:56;1.10;;;0.80;;
37451;SDS011;23314;51.114;6.900;2023-01-08T14:33:29;0.60;;;0.60;;
37451;SDS011;23314;51.114;6.900;2023-01-08T14:35:59;1.63;;;0.90;;
37451;SDS011;23314;51.114;6.900;2023-01-08T14:38:26;1.63;;;0.70;;
37451;SDS011;23314;51.114;6.900;2023-01-08T14:43:44;2.03;;;0.80;;
37451;SDS011;23314;51.114;6.900;2023-01-08T14:46:21;0.80;;;0.80;;
37451;SDS011;23314;51.114;6.900;2023-01-08T14:48:51;0.50;;;0.50;;
37451;SDS011;23314;51.114;6.900;2023-01-08T14:51:25;1.07;;;0.83;;
37451;SDS011;23314;51.114;6.900;2023-01-08T14:53:54;2.17;;;0.80;;
37451;SDS011;23314;51.114;6.900;2023-01-08T14:56:23;0.90;;;0.70;;
37451;SDS011;23314;51.114;6.900;2023-01-08T14:58:55;0.87;;;0.80;;
37451;SDS011;23314;51.114;6.900;2023-01-08T15:01:24;0.70;;;0.70;;
37451;SDS011;23314;51.114;6.900;2023-01-08T15:03:51;0.73;;;0.60;;
37451;SDS011;23314;51.114;6.900;2023-01-08T15:06:29;1.20;;;1.00;;
37451;SDS011;23314;51.114;6.900;2023-01-08T15:08:56;2.30;;;1.43;;
37451;SDS011;23314;51.114;6.900;2023-01-08T15:11:23;1.57;;;0.77;;
37451;SDS011;23314;51.114;6.900;2023-01-08T15:13:50;2.27;;;1.47;;
37451;SDS011;23314;51.114;6.900;2023-01-08T15:16:29;1.30;;;1.20;;
37451;SDS011;23314;51.114;6.900;2023-01-08T15:19:04;1.20;;;1.10;;
37451;SDS011;23314;51.114;6.900;2023-01-08T15:21:50;0.80;;;0.80;;
37451;SDS011;23314;51.114;6.900;2023-01-08T15:24:24;1.03;;;0.90;;
37451;SDS011;23314;51.114;6.900;2023-01-08T15:26:53;0.90;;;0.90;;
37451;SDS011;23314;51.114;6.900;2023-01-08T15:29:24;1.90;;;1.57;;
37451;SDS011;23314;51.114;6.900;2023-01-08T15:32:09;1.53;;;1.10;;
37451;SDS011;23314;51.114;6.900;2023-01-08T15:34:42;2.20;;;1.27;;
37451;SDS011;23314;51.114;6.900;2023-01-08T15:37:09;4.33;;;1.80;;
37451;SDS011;23314;51.114;6.900;2023-01-08T15:39:35;4.37;;;1.53;;
37451;SDS011;23314;51.114;6.900;2023-01-08T15:42:01;1.23;;;1.13;;
37451;SDS011;23314;51.114;6.900;2023-01-08T15:44:58;2.23;;;1.27;;
37451;SDS011;23314;51.114;6.900;2023-01-08T15:47:23;1.73;;;1.10;;
37451;SDS011;23314;51.114;6.900;2023-01-08T15:49:49;3.60;;;1.50;;
37451;SDS011;23314;51.114;6.900;2023-01-08T15:52:15;4.67;;;1.70;;
37451;SDS011;23314;51.114;6.900;2023-01-08T15:54:47;3.10;;;1.60;;
37451;SDS011;23314;51.114;6.900;2023-01-08T15:57:13;2.07;;;1.10;;
37451;SDS011;23314;51.114;6.900;2023-01-08T15:59:38;2.10;;;1.50;;
37451;SDS011;23314;51.114;6.900;2023-01-08T16:02:03;2.43;;;1.70;;
37451;SDS011;23314;51.114;6.900;2023-01-08T16:04:29;1.33;;;1.07;;
37451;SDS011;23314;51.114;6.900;2023-01-08T16:06:54;3.63;;;1.13;;
37451;SDS011;23314;51.114;6.900;2023-01-08T16:09:19;2.80;;;0.83;;
37451;SDS011;23314;51.114;6.900;2023-01-08T16:11:44;1.57;;;1.10;;
37451;SDS011;23314;51.114;6.900;2023-01-08T16:14:10;4.40;;;0.97;;
37451;SDS011;23314;51.114;6.900;2023-01-08T16:16:35;2.30;;;0.80;;
37451;SDS011;23314;51.114;6.900;2023-01-08T16:19:01;2.67;;;1.10;;
37451;SDS011;23314;51.114;6.900;2023-01-08T16:21:26;0.93;;;0.70;;
37451;SDS011;23314;51.114;6.900;2023-01-08T16:23:51;1.37;;;1.00;;
37451;SDS011;23314;51.114;6.900;2023-01-08T16:26:17;2.57;;;1.03;;